sensor_id;sensor_type;location;lat;lon;timestamp;P1;durP1;ratioP1;P2;durP2;ratioP2
52978;SDS011;63430;53.186;6.598;2024-02-26T00:03:29;60.58;;;28.92;;
52978;SDS011;63430;53.186;6.598;2024-02-26T00:08:35;52.30;;;23.95;;
52978;SDS011;63430;53.186;6.598;2024-02-26T00:13:39;44.22;;;19.95;;
52978;SDS011;63430;53.186;6.598;2024-02-26T00:18:46;46.28;;;20.25;;
52978;SDS011;63430;53.186;6.598;2024-02-26T00:23:52;54.45;;;23.27;;
52978;SDS011;63430;53.186;6.598;2024-02-26T00:28:57;60.95;;;30.85;;
52978;SDS011;63430;53.186;6.598;2024-02-26T00:34:03;69.20;;;34.78;;
52978;SDS011;63430;53.186;6.598;2024-02-26T00:39:06;65.78;;;32.60;;
52978;SDS011;63430;53.186;6.598;2024-02-26T00:44:09;55.83;;;28.05;;
52978;SDS011;63430;53.186;6.598;2024-02-26T00:49:15;51.00;;;27.27;;
52978;SDS011;63430;53.186;6.598;2024-02-26T00:54:17;48.53;;;27.80;;
52978;SDS011;63430;53.186;6.598;2024-02-26T00:59:20;49.30;;;30.08;;
52978;SDS011;63430;53.186;6.598;2024-02-26T01:04:26;44.03;;;24.77;;
52978;SDS011;63430;53.186;6.598;2024-02-26T01:09:30;34.92;;;22.10;;
52978;SDS011;63430;53.186;6.598;2024-02-26T01:14:32;35.03;;;21.35;;
52978;SDS011;63430;53.186;6.598;2024-02-26T01:19:38;33.60;;;21.90;;
52978;SDS011;63430;53.186;6.598;2024-02-26T01:24:40;43.22;;;26.45;;
52978;SDS011;63430;53.186;6.598;2024-02-26T01:29:44;40.25;;;25.95;;
52978;SDS011;63430;53.186;6.598;2024-02-26T01:34:50;40.10;;;24.98;;
52978;SDS011;63430;53.186;6.598;2024-02-26T01:39:57;39.28;;;26.20;;
52978;SDS011;63430;53.186;6.598;2024-02-26T01:45:00;31.25;;;21.15;;
52978;SDS011;63430;53.186;6.598;2024-02-26T01:50:07;28.52;;;18.98;;
52978;SDS011;63430;53.186;6.598;2024-02-26T01:55:11;22.50;;;14.88;;
52978;SDS011;63430;53.186;6.598;2024-02-26T02:00:17;21.13;;;14.18;;
52978;SDS011;63430;53.186;6.598;2024-02-26T02:05:40;21.13;;;13.20;;
52978;SDS011;63430;53.186;6.598;2024-02-26T02:10:45;20.70;;;14.00;;
52978;SDS011;63430;53.186;6.598;2024-02-26T02:15:50;20.75;;;14.23;;
52978;SDS011;63430;53.186;6.598;2024-02-26T02:20:59;25.77;;;17.65;;
52978;SDS011;63430;53.186;6.598;2024-02-26T02:26:03;21.58;;;14.88;;
52978;SDS011;63430;53.186;6.598;2024-02-26T02:31:07;25.33;;;17.15;;
52978;SDS011;63430;53.186;6.598;2024-02-26T02:36:13;25.75;;;18.67;;
52978;SDS011;63430;53.186;6.598;2024-02-26T02:41:18;25.77;;;18.50;;
52978;SDS011;63430;53.186;6.598;2024-02-26T02:46:21;20.15;;;14.98;;
52978;SDS011;63430;53.186;6.598;2024-02-26T02:51:29;23.80;;;15.55;;
52978;SDS011;63430;53.186;6.598;2024-02-26T02:56:34;19.87;;;12.43;;
52978;SDS011;63430;53.186;6.598;2024-02-26T03:01:39;15.85;;;11.40;;
52978;SDS011;63430;53.186;6.598;2024-02-26T03:06:46;19.90;;;13.65;;
52978;SDS011;63430;53.186;6.598;2024-02-26T03:11:50;12.25;;;9.15;;
52978;SDS011;63430;53.186;6.598;2024-02-26T03:16:56;12.23;;;9.80;;
52978;SDS011;63430;53.186;6.598;2024-02-26T03:22:02;15.63;;;11.77;;
52978;SDS011;63430;53.186;6.598;2024-02-26T03:27:06;18.05;;;13.55;;
52978;SDS011;63430;53.186;6.598;2024-02-26T03:32:12;24.17;;;15.60;;
52978;SDS011;63430;53.186;6.598;2024-02-26T03:37:18;23.67;;;17.48;;
52978;SDS011;63430;53.186;6.598;2024-02-26T03:42:21;21.23;;;15.55;;
52978;SDS011;63430;53.186;6.598;2024-02-26T03:47:26;20.40;;;13.30;;
52978;SDS011;63430;53.186;6.598;2024-02-26T03:52:32;14.30;;;9.43;;
52978;SDS011;63430;53.186;6.598;2024-02-26T03:57:37;12.20;;;8.30;;
52978;SDS011;63430;53.186;6.598;2024-02-26T04:02:41;13.02;;;8.32;;
52978;SDS011;63430;53.186;6.598;2024-02-26T04:07:48;10.95;;;7.15;;
52978;SDS011;63430;53.186;6.598;2024-02-26T04:12:53;12.40;;;7.63;;
52978;SDS011;63430;53.186;6.598;2024-02-26T04:17:58;11.20;;;7.07;;
52978;SDS011;63430;53.186;6.598;2024-02-26T04:23:04;9.25;;;6.80;;
52978;SDS011;63430;53.186;6.598;2024-02-26T04:28:08;9.75;;;6.63;;
52978;SDS011;63430;53.186;6.598;2024-02-26T04:33:12;10.70;;;6.38;;
52978;SDS011;63430;53.186;6.598;2024-02-26T04:38:19;10.32;;;6.45;;
52978;SDS011;63430;53.186;6.598;2024-02-26T04:43:22;8.70;;;5.97;;
52978;SDS011;63430;53.186;6.598;2024-02-26T04:48:27;8.13;;;6.00;;
52978;SDS011;63430;53.186;6.598;2024-02-26T04:53:34;8.00;;;5.55;;
52978;SDS011;63430;53.186;6.598;2024-02-26T04:58:38;10.52;;;6.72;;
52978;SDS011;63430;53.186;6.598;2024-02-26T05:03:42;9.73;;;6.32;;
52978;SDS011;63430;53.186;6.598;2024-02-26T05:08:49;9.20;;;6.72;;
52978;SDS011;63430;53.186;6.598;2024-02-26T05:13:53;7.88;;;5.70;;
52978;SDS011;63430;53.186;6.598;2024-02-26T05:18:56;12.50;;;8.75;;
52978;SDS011;63430;53.186;6.598;2024-02-26T05:24:03;11.40;;;8.40;;
52978;SDS011;63430;53.186;6.598;2024-02-26T05:29:07;11.10;;;8.70;;
52978;SDS011;63430;53.186;6.598;2024-02-26T05:34:11;10.70;;;7.90;;
52978;SDS011;63430;53.186;6.598;2024-02-26T05:39:18;9.82;;;7.50;;
52978;SDS011;63430;53.186;6.598;2024-02-26T05:44:26;8.40;;;6.82;;
52978;SDS011;63430;53.186;6.598;2024-02-26T05:49:31;12.73;;;8.65;;
52978;SDS011;63430;53.186;6.598;2024-02-26T05:54:39;8.90;;;6.70;;
52978;SDS011;63430;53.186;6.598;2024-02-26T05:59:42;6.32;;;5.28;;
52978;SDS011;63430;53.186;6.598;2024-02-26T06:04:46;8.43;;;6.03;;
52978;SDS011;63430;53.186;6.598;2024-02-26T06:09:52;9.40;;;8.38;;
52978;SDS011;63430;53.186;6.598;2024-02-26T06:14:56;8.52;;;7.68;;
52978;SDS011;63430;53.186;6.598;2024-02-26T06:20:13;7.15;;;5.47;;
52978;SDS011;63430;53.186;6.598;2024-02-26T06:25:19;7.88;;;5.75;;
52978;SDS011;63430;53.186;6.598;2024-02-26T06:30:23;9.73;;;6.35;;
52978;SDS011;63430;53.186;6.598;2024-02-26T06:35:27;9.88;;;7.57;;
52978;SDS011;63430;53.186;6.598;2024-02-26T06:40:33;9.15;;;6.20;;
52978;SDS011;63430;53.186;6.598;2024-02-26T06:45:37;7.45;;;5.85;;
52978;SDS011;63430;53.186;6.598;2024-02-26T06:50:41;10.82;;;6.70;;
52978;SDS011;63430;53.186;6.598;2024-02-26T06:55:47;7.18;;;6.07;;
52978;SDS011;63430;53.186;6.598;2024-02-26T07:00:52;6.82;;;4.47;;
52978;SDS011;63430;53.186;6.598;2024-02-26T07:05:57;8.02;;;4.97;;
52978;SDS011;63430;53.186;6.598;2024-02-26T07:11:10;6.28;;;4.88;;
52978;SDS011;63430;53.186;6.598;2024-02-26T07:16:15;9.45;;;4.82;;
52978;SDS011;63430;53.186;6.598;2024-02-26T07:21:18;7.05;;;4.32;;
52978;SDS011;63430;53.186;6.598;2024-02-26T07:26:25;6.30;;;4.25;;
52978;SDS011;63430;53.186;6.598;2024-02-26T07:31:30;5.28;;;4.43;;
52978;SDS011;63430;53.186;6.598;2024-02-26T07:36:34;6.60;;;5.00;;
52978;SDS011;63430;53.186;6.598;2024-02-26T07:41:41;5.85;;;5.13;;
52978;SDS011;63430;53.186;6.598;2024-02-26T07:46:51;7.75;;;5.38;;
52978;SDS011;63430;53.186;6.598;2024-02-26T07:51:56;7.50;;;5.53;;
52978;SDS011;63430;53.186;6.598;2024-02-26T07:57:05;6.22;;;4.88;;
52978;SDS011;63430;53.186;6.598;2024-02-26T08:02:11;4.97;;;3.75;;
52978;SDS011;63430;53.186;6.598;2024-02-26T08:07:15;6.00;;;4.65;;
52978;SDS011;63430;53.186;6.598;2024-02-26T08:12:23;6.22;;;3.85;;
52978;SDS011;63430;53.186;6.598;2024-02-26T08:17:27;5.60;;;4.35;;
52978;SDS011;63430;53.186;6.598;2024-02-26T08:22:30;3.95;;;3.13;;
52978;SDS011;63430;53.186;6.598;2024-02-26T08:27:38;4.20;;;2.90;;
52978;SDS011;63430;53.186;6.598;2024-02-26T08:32:44;4.43;;;3.40;;
52978;SDS011;63430;53.186;6.598;2024-02-26T08:37:56;5.65;;;2.97;;
52978;SDS011;63430;53.186;6.598;2024-02-26T08:43:03;4.70;;;4.05;;
52978;SDS011;63430;53.186;6.598;2024-02-26T08:48:08;5.73;;;3.37;;
52978;SDS011;63430;53.186;6.598;2024-02-26T08:53:12;4.75;;;3.50;;
52978;SDS011;63430;53.186;6.598;2024-02-26T08:58:22;5.80;;;4.00;;
52978;SDS011;63430;53.186;6.598;2024-02-26T09:08:34;6.13;;;3.70;;
52978;SDS011;63430;53.186;6.598;2024-02-26T09:13:43;5.38;;;4.20;;
52978;SDS011;63430;53.186;6.598;2024-02-26T09:18:48;4.70;;;3.80;;
52978;SDS011;63430;53.186;6.598;2024-02-26T09:23:54;5.93;;;3.42;;
52978;SDS011;63430;53.186;6.598;2024-02-26T09:29:03;3.40;;;3.10;;
52978;SDS011;63430;53.186;6.598;2024-02-26T09:34:06;3.97;;;3.47;;
52978;SDS011;63430;53.186;6.598;2024-02-26T09:39:10;3.22;;;2.80;;
52978;SDS011;63430;53.186;6.598;2024-02-26T09:44:18;4.45;;;3.55;;
52978;SDS011;63430;53.186;6.598;2024-02-26T09:49:26;7.30;;;3.47;;
52978;SDS011;63430;53.186;6.598;2024-02-26T09:54:30;4.68;;;3.30;;
52978;SDS011;63430;53.186;6.598;2024-02-26T09:59:38;4.45;;;3.47;;
52978;SDS011;63430;53.186;6.598;2024-02-26T10:04:43;4.82;;;3.30;;
52978;SDS011;63430;53.186;6.598;2024-02-26T10:09:51;3.55;;;3.13;;
52978;SDS011;63430;53.186;6.598;2024-02-26T10:14:59;3.45;;;2.90;;
52978;SDS011;63430;53.186;6.598;2024-02-26T10:25:28;3.70;;;3.40;;
52978;SDS011;63430;53.186;6.598;2024-02-26T10:30:54;4.18;;;3.78;;
52978;SDS011;63430;53.186;6.598;2024-02-26T10:36:17;5.68;;;3.65;;
52978;SDS011;63430;53.186;6.598;2024-02-26T10:41:20;4.05;;;3.17;;
52978;SDS011;63430;53.186;6.598;2024-02-26T10:46:29;4.90;;;3.38;;
52978;SDS011;63430;53.186;6.598;2024-02-26T10:51:32;4.22;;;3.00;;
52978;SDS011;63430;53.186;6.598;2024-02-26T10:56:40;4.78;;;2.95;;
52978;SDS011;63430;53.186;6.598;2024-02-26T11:01:48;6.45;;;2.75;;
52978;SDS011;63430;53.186;6.598;2024-02-26T11:06:52;5.47;;;3.08;;
52978;SDS011;63430;53.186;6.598;2024-02-26T11:11:58;3.97;;;3.05;;
52978;SDS011;63430;53.186;6.598;2024-02-26T11:17:07;3.17;;;2.85;;
52978;SDS011;63430;53.186;6.598;2024-02-26T11:22:12;4.80;;;3.25;;
52978;SDS011;63430;53.186;6.598;2024-02-26T11:27:28;3.35;;;3.05;;
52978;SDS011;63430;53.186;6.598;2024-02-26T11:32:39;4.28;;;3.55;;
52978;SDS011;63430;53.186;6.598;2024-02-26T11:37:50;3.72;;;3.28;;
52978;SDS011;63430;53.186;6.598;2024-02-26T11:42:56;3.88;;;3.25;;
52978;SDS011;63430;53.186;6.598;2024-02-26T11:48:03;3.88;;;2.67;;
52978;SDS011;63430;53.186;6.598;2024-02-26T11:53:20;5.13;;;3.90;;
52978;SDS011;63430;53.186;6.598;2024-02-26T11:58:26;6.80;;;4.15;;
52978;SDS011;63430;53.186;6.598;2024-02-26T12:03:36;7.93;;;4.85;;
52978;SDS011;63430;53.186;6.598;2024-02-26T12:08:41;5.80;;;4.93;;
52978;SDS011;63430;53.186;6.598;2024-02-26T12:13:46;6.03;;;4.15;;
52978;SDS011;63430;53.186;6.598;2024-02-26T12:18:55;4.75;;;4.03;;
52978;SDS011;63430;53.186;6.598;2024-02-26T12:24:06;7.35;;;5.10;;
52978;SDS011;63430;53.186;6.598;2024-02-26T12:29:11;5.95;;;5.20;;
52978;SDS011;63430;53.186;6.598;2024-02-26T12:34:17;8.82;;;5.88;;
52978;SDS011;63430;53.186;6.598;2024-02-26T12:39:21;9.48;;;6.55;;
52978;SDS011;63430;53.186;6.598;2024-02-26T12:44:27;10.93;;;6.60;;
52978;SDS011;63430;53.186;6.598;2024-02-26T12:49:33;7.45;;;6.50;;
52978;SDS011;63430;53.186;6.598;2024-02-26T12:54:38;9.85;;;7.18;;
52978;SDS011;63430;53.186;6.598;2024-02-26T12:59:43;7.75;;;6.95;;
52978;SDS011;63430;53.186;6.598;2024-02-26T13:04:50;8.48;;;6.53;;
52978;SDS011;63430;53.186;6.598;2024-02-26T13:09:56;8.30;;;6.63;;
52978;SDS011;63430;53.186;6.598;2024-02-26T13:15:00;9.10;;;6.82;;
52978;SDS011;63430;53.186;6.598;2024-02-26T13:20:09;10.45;;;7.68;;
52978;SDS011;63430;53.186;6.598;2024-02-26T13:25:13;13.30;;;7.90;;
52978;SDS011;63430;53.186;6.598;2024-02-26T13:30:22;10.77;;;7.28;;
52978;SDS011;63430;53.186;6.598;2024-02-26T13:35:29;9.65;;;7.50;;
52978;SDS011;63430;53.186;6.598;2024-02-26T13:40:34;12.05;;;7.75;;
52978;SDS011;63430;53.186;6.598;2024-02-26T13:45:39;11.38;;;8.07;;
52978;SDS011;63430;53.186;6.598;2024-02-26T13:50:46;11.43;;;7.47;;
52978;SDS011;63430;53.186;6.598;2024-02-26T13:55:49;10.65;;;7.18;;
52978;SDS011;63430;53.186;6.598;2024-02-26T14:00:53;12.75;;;8.85;;
52978;SDS011;63430;53.186;6.598;2024-02-26T14:06:00;10.23;;;8.38;;
52978;SDS011;63430;53.186;6.598;2024-02-26T14:11:05;10.95;;;7.90;;
52978;SDS011;63430;53.186;6.598;2024-02-26T14:16:09;9.52;;;7.30;;
52978;SDS011;63430;53.186;6.598;2024-02-26T14:21:15;10.85;;;8.40;;
52978;SDS011;63430;53.186;6.598;2024-02-26T14:26:20;10.63;;;8.18;;
52978;SDS011;63430;53.186;6.598;2024-02-26T14:31:26;13.35;;;8.60;;
52978;SDS011;63430;53.186;6.598;2024-02-26T14:36:33;12.32;;;8.07;;
52978;SDS011;63430;53.186;6.598;2024-02-26T14:41:37;14.30;;;8.15;;
52978;SDS011;63430;53.186;6.598;2024-02-26T14:46:40;10.93;;;8.35;;
52978;SDS011;63430;53.186;6.598;2024-02-26T14:51:50;10.77;;;7.35;;
52978;SDS011;63430;53.186;6.598;2024-02-26T14:56:56;7.28;;;6.28;;
52978;SDS011;63430;53.186;6.598;2024-02-26T15:02:00;9.70;;;6.88;;
52978;SDS011;63430;53.186;6.598;2024-02-26T15:07:06;8.43;;;6.43;;
52978;SDS011;63430;53.186;6.598;2024-02-26T15:12:13;7.32;;;5.80;;
52978;SDS011;63430;53.186;6.598;2024-02-26T15:17:18;8.48;;;5.93;;
52978;SDS011;63430;53.186;6.598;2024-02-26T15:22:26;9.40;;;6.15;;
52978;SDS011;63430;53.186;6.598;2024-02-26T15:27:31;8.00;;;5.78;;
52978;SDS011;63430;53.186;6.598;2024-02-26T15:32:35;9.77;;;5.97;;
52978;SDS011;63430;53.186;6.598;2024-02-26T15:37:41;9.77;;;6.32;;
52978;SDS011;63430;53.186;6.598;2024-02-26T15:42:45;7.60;;;6.43;;
52978;SDS011;63430;53.186;6.598;2024-02-26T15:47:49;7.88;;;5.25;;
52978;SDS011;63430;53.186;6.598;2024-02-26T15:52:55;9.32;;;6.10;;
52978;SDS011;63430;53.186;6.598;2024-02-26T15:58:00;7.90;;;6.00;;
52978;SDS011;63430;53.186;6.598;2024-02-26T16:03:04;9.23;;;6.50;;
52978;SDS011;63430;53.186;6.598;2024-02-26T16:08:11;8.05;;;6.60;;
52978;SDS011;63430;53.186;6.598;2024-02-26T16:13:23;10.32;;;7.35;;
52978;SDS011;63430;53.186;6.598;2024-02-26T16:18:26;11.27;;;7.57;;
52978;SDS011;63430;53.186;6.598;2024-02-26T16:23:34;10.73;;;8.15;;
52978;SDS011;63430;53.186;6.598;2024-02-26T16:28:37;13.90;;;8.10;;
52978;SDS011;63430;53.186;6.598;2024-02-26T16:33:40;11.77;;;8.45;;
52978;SDS011;63430;53.186;6.598;2024-02-26T16:38:47;10.20;;;7.25;;
52978;SDS011;63430;53.186;6.598;2024-02-26T16:43:50;12.88;;;8.82;;
52978;SDS011;63430;53.186;6.598;2024-02-26T16:48:56;12.68;;;8.65;;
52978;SDS011;63430;53.186;6.598;2024-02-26T16:54:02;12.77;;;8.38;;
52978;SDS011;63430;53.186;6.598;2024-02-26T16:59:06;11.23;;;8.50;;
52978;SDS011;63430;53.186;6.598;2024-02-26T17:04:10;10.85;;;8.70;;
52978;SDS011;63430;53.186;6.598;2024-02-26T17:09:16;11.32;;;8.90;;
52978;SDS011;63430;53.186;6.598;2024-02-26T17:14:21;11.57;;;8.80;;
52978;SDS011;63430;53.186;6.598;2024-02-26T17:19:26;11.93;;;8.90;;
52978;SDS011;63430;53.186;6.598;2024-02-26T17:24:33;13.10;;;9.82;;
52978;SDS011;63430;53.186;6.598;2024-02-26T17:29:37;12.02;;;8.63;;
52978;SDS011;63430;53.186;6.598;2024-02-26T17:34:40;10.75;;;8.27;;
52978;SDS011;63430;53.186;6.598;2024-02-26T17:39:54;11.23;;;8.63;;
52978;SDS011;63430;53.186;6.598;2024-02-26T17:45:34;13.68;;;8.60;;
52978;SDS011;63430;53.186;6.598;2024-02-26T17:50:58;12.55;;;8.93;;
52978;SDS011;63430;53.186;6.598;2024-02-26T17:56:06;9.93;;;7.68;;
52978;SDS011;63430;53.186;6.598;2024-02-26T18:01:10;9.45;;;7.30;;
52978;SDS011;63430;53.186;6.598;2024-02-26T18:06:13;10.95;;;7.72;;
52978;SDS011;63430;53.186;6.598;2024-02-26T18:11:21;9.85;;;7.63;;
52978;SDS011;63430;53.186;6.598;2024-02-26T18:16:27;10.40;;;7.88;;
52978;SDS011;63430;53.186;6.598;2024-02-26T18:21:30;11.63;;;8.13;;
52978;SDS011;63430;53.186;6.598;2024-02-26T18:26:35;11.60;;;7.80;;
52978;SDS011;63430;53.186;6.598;2024-02-26T18:31:38;9.07;;;6.88;;
52978;SDS011;63430;53.186;6.598;2024-02-26T18:36:42;10.63;;;7.65;;
52978;SDS011;63430;53.186;6.598;2024-02-26T18:41:47;11.07;;;7.50;;
52978;SDS011;63430;53.186;6.598;2024-02-26T18:46:51;15.63;;;8.77;;
52978;SDS011;63430;53.186;6.598;2024-02-26T18:51:56;12.32;;;7.75;;
52978;SDS011;63430;53.186;6.598;2024-02-26T18:57:02;12.07;;;7.68;;
52978;SDS011;63430;53.186;6.598;2024-02-26T19:02:06;11.35;;;7.63;;
52978;SDS011;63430;53.186;6.598;2024-02-26T19:07:09;9.75;;;6.85;;
52978;SDS011;63430;53.186;6.598;2024-02-26T19:12:14;12.27;;;8.35;;
52978;SDS011;63430;53.186;6.598;2024-02-26T19:17:18;11.20;;;8.05;;
52978;SDS011;63430;53.186;6.598;2024-02-26T19:22:21;9.98;;;7.20;;
52978;SDS011;63430;53.186;6.598;2024-02-26T19:27:30;9.70;;;7.15;;
52978;SDS011;63430;53.186;6.598;2024-02-26T19:32:33;8.20;;;6.50;;
52978;SDS011;63430;53.186;6.598;2024-02-26T19:37:36;7.47;;;6.18;;
52978;SDS011;63430;53.186;6.598;2024-02-26T19:42:43;9.60;;;6.18;;
52978;SDS011;63430;53.186;6.598;2024-02-26T19:47:46;6.78;;;5.45;;
52978;SDS011;63430;53.186;6.598;2024-02-26T19:52:50;10.48;;;6.57;;
52978;SDS011;63430;53.186;6.598;2024-02-26T19:57:59;8.02;;;5.05;;
52978;SDS011;63430;53.186;6.598;2024-02-26T20:03:05;6.85;;;5.82;;
52978;SDS011;63430;53.186;6.598;2024-02-26T20:08:09;7.50;;;6.07;;
52978;SDS011;63430;53.186;6.598;2024-02-26T20:13:14;8.95;;;5.50;;
52978;SDS011;63430;53.186;6.598;2024-02-26T20:18:19;10.75;;;5.63;;
52978;SDS011;63430;53.186;6.598;2024-02-26T20:23:23;7.50;;;5.05;;
52978;SDS011;63430;53.186;6.598;2024-02-26T20:28:30;6.60;;;5.15;;
52978;SDS011;63430;53.186;6.598;2024-02-26T20:33:37;7.30;;;4.95;;
52978;SDS011;63430;53.186;6.598;2024-02-26T20:38:43;9.13;;;5.20;;
52978;SDS011;63430;53.186;6.598;2024-02-26T20:43:49;9.75;;;5.57;;
52978;SDS011;63430;53.186;6.598;2024-02-26T20:48:52;7.47;;;5.07;;
52978;SDS011;63430;53.186;6.598;2024-02-26T20:53:56;9.88;;;5.00;;
52978;SDS011;63430;53.186;6.598;2024-02-26T20:59:11;6.32;;;5.00;;
52978;SDS011;63430;53.186;6.598;2024-02-26T21:04:14;7.53;;;4.90;;
52978;SDS011;63430;53.186;6.598;2024-02-26T21:09:19;10.02;;;5.43;;
52978;SDS011;63430;53.186;6.598;2024-02-26T21:14:25;8.02;;;5.13;;
52978;SDS011;63430;53.186;6.598;2024-02-26T21:19:27;7.80;;;5.07;;
52978;SDS011;63430;53.186;6.598;2024-02-26T21:24:30;5.72;;;4.50;;
52978;SDS011;63430;53.186;6.598;2024-02-26T21:29:38;5.80;;;4.45;;
52978;SDS011;63430;53.186;6.598;2024-02-26T21:34:43;7.82;;;4.60;;
52978;SDS011;63430;53.186;6.598;2024-02-26T21:39:46;7.50;;;4.45;;
52978;SDS011;63430;53.186;6.598;2024-02-26T21:44:52;10.70;;;7.65;;
52978;SDS011;63430;53.186;6.598;2024-02-26T21:49:56;7.43;;;4.85;;
52978;SDS011;63430;53.186;6.598;2024-02-26T21:54:59;7.47;;;4.38;;
52978;SDS011;63430;53.186;6.598;2024-02-26T22:00:07;7.65;;;4.40;;
52978;SDS011;63430;53.186;6.598;2024-02-26T22:05:14;7.50;;;4.55;;
52978;SDS011;63430;53.186;6.598;2024-02-26T22:10:19;10.18;;;4.70;;
52978;SDS011;63430;53.186;6.598;2024-02-26T22:15:26;9.70;;;4.57;;
52978;SDS011;63430;53.186;6.598;2024-02-26T22:20:29;8.77;;;5.05;;
52978;SDS011;63430;53.186;6.598;2024-02-26T22:25:36;8.35;;;4.72;;
52978;SDS011;63430;53.186;6.598;2024-02-26T22:35:51;6.55;;;3.85;;
52978;SDS011;63430;53.186;6.598;2024-02-26T22:40:56;6.50;;;4.00;;
52978;SDS011;63430;53.186;6.598;2024-02-26T22:46:02;6.50;;;4.10;;
52978;SDS011;63430;53.186;6.598;2024-02-26T22:51:07;7.63;;;4.40;;
52978;SDS011;63430;53.186;6.598;2024-02-26T22:56:10;9.73;;;3.97;;
52978;SDS011;63430;53.186;6.598;2024-02-26T23:01:17;7.32;;;4.18;;
52978;SDS011;63430;53.186;6.598;2024-02-26T23:06:21;8.15;;;4.10;;
52978;SDS011;63430;53.186;6.598;2024-02-26T23:11:26;4.82;;;3.92;;
52978;SDS011;63430;53.186;6.598;2024-02-26T23:16:34;6.95;;;4.10;;
52978;SDS011;63430;53.186;6.598;2024-02-26T23:21:39;5.85;;;4.38;;
52978;SDS011;63430;53.186;6.598;2024-02-26T23:26:45;7.97;;;4.53;;
52978;SDS011;63430;53.186;6.598;2024-02-26T23:31:52;8.82;;;4.30;;
52978;SDS011;63430;53.186;6.598;2024-02-26T23:36:57;13.00;;;4.63;;
52978;SDS011;63430;53.186;6.598;2024-02-26T23:42:00;6.50;;;4.25;;
52978;SDS011;63430;53.186;6.598;2024-02-26T23:47:07;9.70;;;5.18;;
52978;SDS011;63430;53.186;6.598;2024-02-26T23:52:10;8.27;;;5.25;;
52978;SDS011;63430;53.186;6.598;2024-02-26T23:57:15;12.85;;;5.28;;
